Time;durP1;ratioP1;P1;durP2;ratioP2;P2;SDS_P1;SDS_P2;PMS_P1;PMS_P2;Temp;Humidity;BMP_temperature;BMP_pressure;BME280_temperature;BME280_humidity;BME280_pressure;Samples;Min_cycle;Max_cycle;Signal;HPM_P1;HPM_P2
2023/09/10 00:01:49;;;;;;;14.13;12.93;;;;;;;;;;5016406;28;20241;-75
2023/09/10 00:04:15;;;;;;;14.52;13.30;;;;;;;;;;5017605;28;20199;-75
2023/09/10 00:06:41;;;;;;;14.47;13.33;;;;;;;;;;5038474;28;20187;-75
2023/09/10 00:09:09;;;;;;;15.47;14.07;;;;;;;;;;5032330;28;20186;-75
2023/09/10 00:11:35;;;;;;;14.98;13.68;;;;;;;;;;5015963;28;20181;-78
2023/09/10 00:14:01;;;;;;;15.20;13.63;;;;;;;;;;5046320;28;20214;-79
2023/09/10 00:16:27;;;;;;;15.30;13.80;;;;;;;;;;5043255;28;20274;-79
2023/09/10 00:18:53;;;;;;;14.87;13.57;;;;;;;;;;5037273;28;20212;-78
2023/09/10 00:21:19;;;;;;;16.23;14.60;;;;;;;;;;5026847;28;20183;-79
2023/09/10 00:23:45;;;;;;;14.70;13.40;;;;;;;;;;5034314;28;20229;-79
2023/09/10 00:26:11;;;;;;;15.57;14.20;;;;;;;;;;5039095;28;20179;-78
2023/09/10 00:28:37;;;;;;;16.73;15.30;;;;;;;;;;5007644;28;20191;-77
2023/09/10 00:31:04;;;;;;;16.43;14.83;;;;;;;;;;5023189;28;20238;-77
2023/09/10 00:33:30;;;;;;;15.97;14.67;;;;;;;;;;5037638;28;20184;-77
2023/09/10 00:35:56;;;;;;;16.43;14.83;;;;;;;;;;5026421;28;20234;-77
2023/09/10 00:38:22;;;;;;;15.80;14.37;;;;;;;;;;5071630;28;20191;-77
2023/09/10 00:40:48;;;;;;;16.00;14.67;;;;;;;;;;5041140;28;20184;-77
2023/09/10 00:43:14;;;;;;;16.40;14.70;;;;;;;;;;5039949;28;20180;-77
2023/09/10 00:45:41;;;;;;;16.23;14.67;;;;;;;;;;5042707;28;20242;-73
2023/09/10 00:48:07;;;;;;;16.23;14.70;;;;;;;;;;5050052;28;20292;-74
2023/09/10 00:50:33;;;;;;;15.77;14.57;;;;;;;;;;5028299;28;20192;-74
2023/09/10 00:53:00;;;;;;;15.80;14.50;;;;;;;;;;5052301;28;20172;-74
2023/09/10 00:55:26;;;;;;;18.23;16.65;;;;;;;;;;5031056;28;20443;-74
2023/09/10 00:57:52;;;;;;;17.42;16.02;;;;;;;;;;5021780;28;20509;-74
2023/09/10 01:00:18;;;;;;;17.13;15.82;;;;;;;;;;5043100;28;20414;-74
2023/09/10 01:02:45;;;;;;;17.67;16.20;;;;;;;;;;5041507;28;20417;-75
2023/09/10 01:05:11;;;;;;;17.73;16.33;;;;;;;;;;5023074;28;20433;-75
2023/09/10 01:07:38;;;;;;;17.67;16.17;;;;;;;;;;5037647;28;20515;-75
2023/09/10 01:10:08;;;;;;;17.77;16.17;;;;;;;;;;5040151;28;20502;-75
2023/09/10 01:12:43;;;;;;;18.23;16.67;;;;;;;;;;5046932;28;20415;-75
2023/09/10 01:15:15;;;;;;;19.13;17.23;;;;;;;;;;5052552;28;20428;-75
2023/09/10 01:17:47;;;;;;;17.75;16.27;;;;;;;;;;5061793;28;20427;-75
2023/09/10 01:20:16;;;;;;;17.83;16.33;;;;;;;;;;5060004;28;20438;-75
2023/09/10 01:23:05;;;;;;;18.02;16.25;;;;;;;;;;5070359;28;20427;-75
2023/09/10 01:25:32;;;;;;;17.90;16.30;;;;;;;;;;5042560;28;20412;-75
2023/09/10 01:28:04;;;;;;;17.45;15.98;;;;;;;;;;5050424;28;20485;-75
2023/09/10 01:30:33;;;;;;;18.58;17.05;;;;;;;;;;5042081;28;20487;-75
2023/09/10 01:33:02;;;;;;;18.85;17.20;;;;;;;;;;5037390;28;20452;-75
2023/09/10 01:35:31;;;;;;;18.85;17.30;;;;;;;;;;5037816;28;20432;-78
2023/09/10 01:37:59;;;;;;;16.48;14.98;;;;;;;;;;5056016;28;20446;-78
2023/09/10 01:40:35;;;;;;;16.00;14.53;;;;;;;;;;5038260;28;20276;-77
2023/09/10 01:43:06;;;;;;;16.23;14.93;;;;;;;;;;5055708;28;20180;-78
2023/09/10 01:45:33;;;;;;;16.80;15.47;;;;;;;;;;5038745;28;20188;-78
2023/09/10 01:48:00;;;;;;;19.30;17.58;;;;;;;;;;5055523;28;20451;-79
2023/09/10 01:50:27;;;;;;;20.38;18.65;;;;;;;;;;5040620;28;20422;-78
2023/09/10 01:52:53;;;;;;;19.20;17.43;;;;;;;;;;5029553;28;20195;-74
2023/09/10 01:55:19;;;;;;;19.42;17.73;;;;;;;;;;5037851;28;20443;-74
2023/09/10 01:57:45;;;;;;;20.27;18.50;;;;;;;;;;5016901;28;20433;-74
2023/09/10 02:00:11;;;;;;;19.05;17.40;;;;;;;;;;5047693;28;20459;-74
2023/09/10 02:02:37;;;;;;;19.25;17.40;;;;;;;;;;5033152;28;20374;-75
2023/09/10 02:05:03;;;;;;;18.37;16.73;;;;;;;;;;5050955;28;20175;-74
2023/09/10 02:07:29;;;;;;;19.30;17.60;;;;;;;;;;5041525;28;20440;-74
2023/09/10 02:09:58;;;;;;;20.73;18.83;;;;;;;;;;5053273;28;20424;-78
2023/09/10 02:12:24;;;;;;;21.03;19.07;;;;;;;;;;5033311;28;20191;-78
2023/09/10 02:14:50;;;;;;;19.37;17.57;;;;;;;;;;5052681;28;20345;-78
2023/09/10 02:17:17;;;;;;;20.85;18.98;;;;;;;;;;5046101;28;20447;-77
2023/09/10 02:19:43;;;;;;;22.27;20.20;;;;;;;;;;5035394;28;20414;-77
2023/09/10 02:22:09;;;;;;;21.90;20.00;;;;;;;;;;5073215;28;20430;-77
2023/09/10 02:24:35;;;;;;;22.65;20.73;;;;;;;;;;5050822;28;20431;-77
2023/09/10 02:27:01;;;;;;;23.00;21.10;;;;;;;;;;5051036;28;20464;-78
2023/09/10 02:29:27;;;;;;;23.23;21.23;;;;;;;;;;5020023;28;20495;-78
2023/09/10 02:31:54;;;;;;;23.27;21.38;;;;;;;;;;5036217;28;20500;-74
2023/09/10 02:34:20;;;;;;;25.10;22.90;;;;;;;;;;5037463;28;20443;-74
2023/09/10 02:36:46;;;;;;;26.55;24.25;;;;;;;;;;5037213;28;20400;-74
2023/09/10 02:39:12;;;;;;;25.63;23.38;;;;;;;;;;5019738;28;20404;-74
2023/09/10 02:41:38;;;;;;;25.23;22.88;;;;;;;;;;5020378;28;20428;-75
2023/09/10 02:44:04;;;;;;;26.33;24.08;;;;;;;;;;5053612;28;20420;-75
2023/09/10 02:46:30;;;;;;;25.58;23.42;;;;;;;;;;5027321;28;20472;-76
2023/09/10 02:48:56;;;;;;;26.95;24.65;;;;;;;;;;5009812;28;20415;-76
2023/09/10 02:51:22;;;;;;;26.40;23.95;;;;;;;;;;5022089;28;20434;-76
2023/09/10 02:53:48;;;;;;;28.90;26.40;;;;;;;;;;5020803;28;20431;-76
2023/09/10 02:56:14;;;;;;;27.70;25.48;;;;;;;;;;5052043;28;20421;-76
2023/09/10 02:58:41;;;;;;;28.58;26.23;;;;;;;;;;5055542;28;20497;-77
2023/09/10 03:01:07;;;;;;;28.10;25.63;;;;;;;;;;5051170;28;20418;-77
2023/09/10 03:03:33;;;;;;;27.43;25.17;;;;;;;;;;5040898;28;20473;-78
2023/09/10 03:06:00;;;;;;;27.35;24.98;;;;;;;;;;5033838;28;20416;-78
2023/09/10 03:08:26;;;;;;;28.05;25.73;;;;;;;;;;5049405;28;20482;-78
2023/09/10 03:10:52;;;;;;;26.70;24.50;;;;;;;;;;5049388;28;20430;-79
2023/09/10 03:13:18;;;;;;;29.80;27.10;;;;;;;;;;5072052;28;20475;-78
2023/09/10 03:15:48;;;;;;;28.88;26.38;;;;;;;;;;5055700;28;20437;-77
2023/09/10 03:18:14;;;;;;;29.95;27.52;;;;;;;;;;5040870;28;20415;-77
2023/09/10 03:20:40;;;;;;;30.00;27.40;;;;;;;;;;5040022;28;20505;-78
2023/09/10 03:23:06;;;;;;;32.17;29.47;;;;;;;;;;5036777;28;20469;-78
2023/09/10 03:25:35;;;;;;;32.47;29.60;;;;;;;;;;5054446;28;20407;-77
2023/09/10 03:28:02;;;;;;;33.20;30.40;;;;;;;;;;5055150;28;20421;-77
2023/09/10 03:30:27;;;;;;;32.50;29.90;;;;;;;;;;5032674;28;20426;-77
2023/09/10 03:32:53;;;;;;;32.65;29.70;;;;;;;;;;5033283;28;20442;-78
2023/09/10 03:35:20;;;;;;;31.83;28.92;;;;;;;;;;5021017;28;20435;-77
2023/09/10 03:37:46;;;;;;;30.63;28.02;;;;;;;;;;5022488;28;20468;-78
2023/09/10 03:40:12;;;;;;;31.05;28.40;;;;;;;;;;5033467;28;20508;-78
2023/09/10 03:42:38;;;;;;;31.30;28.70;;;;;;;;;;5053677;28;20426;-78
2023/09/10 03:45:04;;;;;;;32.63;29.98;;;;;;;;;;5037708;28;20435;-79
2023/09/10 03:47:33;;;;;;;33.42;30.63;;;;;;;;;;5054047;28;20428;-77
2023/09/10 03:49:59;;;;;;;33.80;30.90;;;;;;;;;;5065626;28;20423;-77
2023/09/10 03:52:25;;;;;;;33.20;30.33;;;;;;;;;;5034580;28;20525;-77
2023/09/10 03:54:51;;;;;;;31.83;28.92;;;;;;;;;;5030927;28;20445;-76
2023/09/10 03:57:17;;;;;;;33.22;30.50;;;;;;;;;;5035160;28;20422;-77
2023/09/10 03:59:44;;;;;;;34.20;31.20;;;;;;;;;;5006672;28;20509;-77
2023/09/10 04:02:11;;;;;;;35.72;32.72;;;;;;;;;;5051114;28;20417;-77
2023/09/10 04:04:37;;;;;;;34.92;32.03;;;;;;;;;;5030840;28;20474;-75
2023/09/10 04:07:04;;;;;;;35.85;32.55;;;;;;;;;;5038479;28;20434;-74
2023/09/10 04:09:30;;;;;;;34.78;31.98;;;;;;;;;;5013257;28;20429;-74
2023/09/10 04:11:57;;;;;;;34.77;31.77;;;;;;;;;;5010150;28;20429;-74
2023/09/10 04:14:23;;;;;;;35.65;32.28;;;;;;;;;;5046959;28;20429;-74
2023/09/10 04:16:49;;;;;;;34.97;31.97;;;;;;;;;;5010838;28;20462;-74
2023/09/10 04:19:16;;;;;;;34.08;31.10;;;;;;;;;;5045097;28;20459;-74
2023/09/10 04:21:42;;;;;;;33.85;31.00;;;;;;;;;;5050225;28;20443;-77
2023/09/10 04:24:09;;;;;;;31.98;29.30;;;;;;;;;;5017722;28;20436;-77
2023/09/10 04:26:35;;;;;;;33.30;30.58;;;;;;;;;;5016913;28;20431;-77
2023/09/10 04:29:01;;;;;;;33.42;30.73;;;;;;;;;;5034147;28;20414;-78
2023/09/10 04:31:27;;;;;;;34.30;31.50;;;;;;;;;;5026546;28;20422;-77
2023/09/10 04:33:53;;;;;;;33.85;30.90;;;;;;;;;;5059124;28;20430;-77
2023/09/10 04:36:19;;;;;;;32.47;29.70;;;;;;;;;;5053204;28;20414;-77
2023/09/10 04:38:45;;;;;;;32.80;30.00;;;;;;;;;;5042413;28;20402;-75
2023/09/10 04:41:11;;;;;;;33.07;30.17;;;;;;;;;;5034138;28;20419;-74
2023/09/10 04:43:37;;;;;;;32.03;29.23;;;;;;;;;;5046814;28;20419;-75
2023/09/10 04:46:03;;;;;;;32.00;29.40;;;;;;;;;;5048968;28;20425;-75
2023/09/10 04:48:29;;;;;;;31.73;28.93;;;;;;;;;;5055759;28;20419;-75
2023/09/10 04:50:55;;;;;;;32.53;29.83;;;;;;;;;;5044750;28;20491;-75
2023/09/10 04:53:21;;;;;;;34.97;31.95;;;;;;;;;;5056632;28;20430;-75
2023/09/10 04:55:54;;;;;;;35.45;32.33;;;;;;;;;;5074320;28;20430;-74
2023/09/10 04:58:20;;;;;;;34.75;31.85;;;;;;;;;;5074979;28;20475;-74
2023/09/10 05:00:46;;;;;;;33.65;30.85;;;;;;;;;;5051345;28;20420;-74
2023/09/10 05:03:12;;;;;;;34.00;31.10;;;;;;;;;;5071871;28;20497;-75
2023/09/10 05:05:38;;;;;;;33.75;30.92;;;;;;;;;;5039474;28;20429;-75
2023/09/10 05:08:04;;;;;;;34.55;31.65;;;;;;;;;;5039130;28;20418;-74
2023/09/10 05:10:30;;;;;;;37.13;33.65;;;;;;;;;;5033042;28;20478;-75
2023/09/10 05:12:56;;;;;;;35.53;32.58;;;;;;;;;;5037710;28;20420;-78
2023/09/10 05:15:22;;;;;;;36.92;33.72;;;;;;;;;;5054930;28;20509;-75
2023/09/10 05:17:48;;;;;;;36.40;33.33;;;;;;;;;;5044711;28;20414;-74
2023/09/10 05:20:14;;;;;;;37.92;34.72;;;;;;;;;;5028279;28;20480;-74
2023/09/10 05:22:40;;;;;;;37.15;34.00;;;;;;;;;;5040811;28;20438;-75
2023/09/10 05:25:06;;;;;;;33.50;30.57;;;;;;;;;;5040468;28;20186;-75
2023/09/10 05:27:32;;;;;;;35.33;32.23;;;;;;;;;;5064384;28;20211;-75
2023/09/10 05:29:58;;;;;;;33.87;30.87;;;;;;;;;;5047349;28;20191;-78
2023/09/10 05:32:24;;;;;;;33.70;30.70;;;;;;;;;;5019242;28;20192;-78
2023/09/10 05:34:50;;;;;;;34.83;31.60;;;;;;;;;;5021159;28;20215;-78
2023/09/10 05:37:17;;;;;;;35.20;31.87;;;;;;;;;;5038146;28;20176;-78
2023/09/10 05:39:42;;;;;;;34.33;31.10;;;;;;;;;;5025177;28;20252;-78
2023/09/10 05:42:09;;;;;;;34.20;31.10;;;;;;;;;;5018569;28;20263;-78
2023/09/10 05:44:34;;;;;;;37.87;34.47;;;;;;;;;;5018367;28;20180;-78
2023/09/10 05:47:01;;;;;;;36.07;32.57;;;;;;;;;;5049984;28;20249;-78
2023/09/10 05:49:27;;;;;;;35.80;32.63;;;;;;;;;;5051600;28;20195;-78
2023/09/10 05:51:53;;;;;;;34.43;31.23;;;;;;;;;;5021855;28;20191;-78
2023/09/10 05:54:19;;;;;;;35.33;31.83;;;;;;;;;;5037900;28;20207;-78
2023/09/10 05:56:45;;;;;;;37.53;34.13;;;;;;;;;;5031030;28;20188;-78
2023/09/10 05:59:11;;;;;;;34.87;31.60;;;;;;;;;;5035905;28;20187;-78
2023/09/10 06:01:37;;;;;;;36.40;33.07;;;;;;;;;;5009552;28;20180;-78
2023/09/10 06:04:03;;;;;;;37.77;34.27;;;;;;;;;;5049388;28;20210;-78
2023/09/10 06:06:29;;;;;;;36.60;32.90;;;;;;;;;;5039760;28;20194;-75
2023/09/10 06:08:55;;;;;;;37.67;33.90;;;;;;;;;;5029274;28;20186;-75
2023/09/10 06:11:21;;;;;;;38.73;34.97;;;;;;;;;;5010999;28;20187;-76
2023/09/10 06:13:47;;;;;;;39.93;36.27;;;;;;;;;;5027126;28;20203;-75
2023/09/10 06:16:13;;;;;;;39.87;36.33;;;;;;;;;;5041012;28;20200;-75
2023/09/10 06:18:39;;;;;;;42.67;38.77;;;;;;;;;;5027683;28;20171;-78
2023/09/10 06:21:05;;;;;;;41.80;38.07;;;;;;;;;;5025606;28;20188;-78
2023/09/10 06:23:31;;;;;;;43.20;39.07;;;;;;;;;;5034117;28;20287;-79
2023/09/10 06:25:57;;;;;;;44.20;40.13;;;;;;;;;;5034395;28;20177;-78
2023/09/10 06:28:24;;;;;;;43.33;39.50;;;;;;;;;;5017210;28;20172;-78
2023/09/10 06:30:50;;;;;;;43.57;39.40;;;;;;;;;;5017577;28;20184;-78
2023/09/10 06:33:16;;;;;;;42.17;38.53;;;;;;;;;;5001297;28;20187;-78
2023/09/10 06:35:42;;;;;;;42.13;38.23;;;;;;;;;;5017576;28;20218;-76
2023/09/10 06:38:08;;;;;;;42.70;38.80;;;;;;;;;;5000978;28;20190;-75
2023/09/10 06:40:36;;;;;;;41.87;37.97;;;;;;;;;;5017165;28;20180;-75
2023/09/10 06:43:08;;;;;;;42.47;38.50;;;;;;;;;;5033620;28;20172;-75
2023/09/10 06:45:34;;;;;;;40.90;37.10;;;;;;;;;;5017223;28;20238;-75
2023/09/10 06:48:00;;;;;;;38.70;35.10;;;;;;;;;;5022395;28;20199;-75
2023/09/10 06:50:26;;;;;;;39.57;36.17;;;;;;;;;;5023784;28;20196;-75
2023/09/10 06:52:52;;;;;;;37.53;34.13;;;;;;;;;;5020458;28;20191;-74
2023/09/10 06:55:18;;;;;;;38.50;34.90;;;;;;;;;;5000918;28;20209;-75
2023/09/10 06:57:44;;;;;;;39.63;35.93;;;;;;;;;;5007152;28;20280;-74
2023/09/10 07:00:11;;;;;;;40.33;36.27;;;;;;;;;;5050381;28;20258;-75
2023/09/10 07:02:37;;;;;;;37.37;33.97;;;;;;;;;;5022596;28;20180;-75
2023/09/10 07:05:03;;;;;;;40.83;37.42;;;;;;;;;;5047592;28;20431;-74
2023/09/10 07:07:29;;;;;;;40.63;36.93;;;;;;;;;;5019908;28;20231;-75
2023/09/10 07:09:55;;;;;;;42.30;38.40;;;;;;;;;;5000614;28;20176;-78
2023/09/10 07:12:21;;;;;;;40.63;36.60;;;;;;;;;;5045282;28;20184;-78
2023/09/10 07:14:49;;;;;;;40.53;36.67;;;;;;;;;;5017815;28;20216;-78
2023/09/10 07:17:15;;;;;;;39.60;36.10;;;;;;;;;;5017596;28;20191;-78
2023/09/10 07:19:41;;;;;;;40.42;36.63;;;;;;;;;;5000824;28;20413;-78
2023/09/10 07:22:07;;;;;;;39.33;35.77;;;;;;;;;;5023333;28;20224;-78
2023/09/10 07:24:33;;;;;;;39.43;35.93;;;;;;;;;;5037121;28;20172;-75
2023/09/10 07:27:01;;;;;;;39.67;36.17;;;;;;;;;;5053821;28;20217;-79
2023/09/10 07:29:27;;;;;;;38.72;35.03;;;;;;;;;;4997774;28;20280;-78
2023/09/10 07:31:53;;;;;;;41.20;37.53;;;;;;;;;;4997544;28;20216;-78
2023/09/10 07:34:20;;;;;;;39.80;36.20;;;;;;;;;;4997355;28;20252;-78
2023/09/10 07:36:46;;;;;;;39.33;35.58;;;;;;;;;;5017115;28;20173;-78
2023/09/10 07:39:13;;;;;;;44.05;39.75;;;;;;;;;;5000545;28;20260;-79
2023/09/10 07:41:39;;;;;;;41.53;37.72;;;;;;;;;;5016567;28;20176;-79
2023/09/10 07:44:05;;;;;;;42.23;38.23;;;;;;;;;;5016679;28;20288;-78
2023/09/10 07:46:31;;;;;;;44.42;40.58;;;;;;;;;;5000197;28;20176;-78
2023/09/10 07:48:57;;;;;;;43.30;39.40;;;;;;;;;;5000214;28;20181;-78
2023/09/10 07:51:24;;;;;;;45.90;41.67;;;;;;;;;;5016630;28;20184;-78
2023/09/10 07:53:50;;;;;;;49.95;45.40;;;;;;;;;;5033100;28;20425;-78
2023/09/10 07:56:16;;;;;;;43.42;39.42;;;;;;;;;;5003760;28;20208;-78
2023/09/10 07:58:42;;;;;;;47.15;42.67;;;;;;;;;;5016423;28;20211;-78
2023/09/10 08:01:08;;;;;;;46.72;42.38;;;;;;;;;;5016434;28;20189;-78
2023/09/10 08:03:36;;;;;;;47.53;43.42;;;;;;;;;;5015414;28;20422;-78
2023/09/10 08:06:03;;;;;;;47.00;42.08;;;;;;;;;;5000070;28;20188;-78
2023/09/10 08:08:29;;;;;;;47.72;43.35;;;;;;;;;;5016310;28;20180;-79
2023/09/10 08:10:55;;;;;;;47.65;43.38;;;;;;;;;;5016124;28;20216;-79
2023/09/10 08:13:21;;;;;;;48.25;43.65;;;;;;;;;;5033191;28;20188;-78
2023/09/10 08:15:47;;;;;;;49.05;44.42;;;;;;;;;;5013480;28;20218;-74
2023/09/10 08:18:14;;;;;;;50.75;46.13;;;;;;;;;;4999787;28;20183;-75
2023/09/10 08:20:41;;;;;;;51.08;46.47;;;;;;;;;;5016699;28;20195;-75
2023/09/10 08:23:07;;;;;;;51.83;46.97;;;;;;;;;;5038114;28;20227;-75
2023/09/10 08:25:34;;;;;;;48.20;43.67;;;;;;;;;;5077634;28;20245;-75
2023/09/10 08:28:00;;;;;;;51.55;46.55;;;;;;;;;;5059862;28;20273;-75
2023/09/10 08:30:27;;;;;;;50.90;46.20;;;;;;;;;;5058301;28;20187;-75
2023/09/10 08:32:53;;;;;;;52.88;48.05;;;;;;;;;;5058798;28;20189;-75
2023/09/10 08:35:19;;;;;;;50.80;46.22;;;;;;;;;;5059518;28;20230;-75
2023/09/10 08:37:45;;;;;;;51.63;46.78;;;;;;;;;;5043103;28;20175;-75
2023/09/10 08:40:12;;;;;;;52.08;47.17;;;;;;;;;;5048255;28;20203;-75
2023/09/10 08:43:02;;;;;;;49.03;44.42;;;;;;;;;;5057115;28;20168;-76
2023/09/10 08:45:28;;;;;;;49.45;44.78;;;;;;;;;;5057422;28;20226;-75
2023/09/10 08:47:57;;;;;;;46.40;42.30;;;;;;;;;;5023374;28;20182;-75
2023/09/10 08:50:24;;;;;;;44.95;40.55;;;;;;;;;;5056768;28;20179;-76
2023/09/10 08:52:51;;;;;;;45.33;41.22;;;;;;;;;;5065045;28;20184;-76
2023/09/10 08:55:17;;;;;;;43.15;39.17;;;;;;;;;;5059561;28;20213;-76
2023/09/10 08:57:44;;;;;;;41.33;37.33;;;;;;;;;;5059481;28;20171;-76
2023/09/10 09:00:12;;;;;;;39.75;35.90;;;;;;;;;;5026519;28;20196;-76
2023/09/10 09:02:41;;;;;;;43.47;39.50;;;;;;;;;;5036271;28;20199;-76
2023/09/10 09:05:08;;;;;;;40.63;36.80;;;;;;;;;;5037771;28;20195;-79
2023/09/10 09:07:57;;;;;;;42.05;38.17;;;;;;;;;;5036043;28;20192;-79
2023/09/10 09:10:25;;;;;;;43.83;39.92;;;;;;;;;;5044942;28;20179;-79
2023/09/10 09:12:53;;;;;;;43.00;39.20;;;;;;;;;;5039210;28;20313;-79
2023/09/10 09:15:19;;;;;;;42.05;38.15;;;;;;;;;;5038888;28;20238;-79
2023/09/10 09:17:46;;;;;;;41.30;37.33;;;;;;;;;;5035277;28;20233;-79
2023/09/10 09:20:12;;;;;;;42.80;38.50;;;;;;;;;;5038872;28;20171;-80
2023/09/10 09:22:42;;;;;;;42.33;38.42;;;;;;;;;;5013736;28;20311;-80
2023/09/10 09:25:09;;;;;;;37.92;34.22;;;;;;;;;;5014422;28;20276;-80
2023/09/10 09:27:35;;;;;;;37.45;33.95;;;;;;;;;;4998685;28;20193;-80
2023/09/10 09:30:06;;;;;;;37.65;34.15;;;;;;;;;;4998889;28;20189;-80
2023/09/10 09:32:34;;;;;;;32.40;29.30;;;;;;;;;;4999205;28;20177;-80
2023/09/10 09:35:00;;;;;;;34.50;31.50;;;;;;;;;;5018634;28;20213;-80
2023/09/10 09:37:26;;;;;;;30.63;27.15;;;;;;;;;;5013972;28;20181;-80
2023/09/10 09:39:52;;;;;;;33.17;29.80;;;;;;;;;;5003017;28;20177;-80
2023/09/10 09:42:22;;;;;;;29.40;26.70;;;;;;;;;;5014909;28;20216;-80
2023/09/10 09:44:48;;;;;;;29.02;25.90;;;;;;;;;;5026994;28;20185;-80
2023/09/10 09:47:15;;;;;;;34.10;30.77;;;;;;;;;;5016030;28;20368;-80
2023/09/10 09:49:44;;;;;;;34.35;31.05;;;;;;;;;;5016452;28;20237;-80
2023/09/10 09:52:11;;;;;;;27.45;25.05;;;;;;;;;;5017546;28;20188;-80
2023/09/10 09:54:37;;;;;;;32.95;30.00;;;;;;;;;;4987821;28;20205;-80
2023/09/10 09:57:03;;;;;;;28.08;25.30;;;;;;;;;;5000425;28;20181;-80
2023/09/10 09:59:29;;;;;;;28.88;25.58;;;;;;;;;;5018898;28;20201;-80
2023/09/10 10:01:57;;;;;;;27.92;25.38;;;;;;;;;;5035454;28;20173;-80
2023/09/10 10:04:23;;;;;;;25.65;22.45;;;;;;;;;;5017912;28;20199;-80
2023/09/10 10:06:50;;;;;;;24.30;21.95;;;;;;;;;;5018016;28;20187;-80
2023/09/10 10:09:18;;;;;;;22.83;19.48;;;;;;;;;;5035516;28;20169;-80
2023/09/10 10:11:45;;;;;;;19.75;17.75;;;;;;;;;;5017733;28;20177;-80
2023/09/10 10:14:11;;;;;;;21.63;19.25;;;;;;;;;;5001552;28;20276;-80
2023/09/10 10:16:37;;;;;;;22.30;18.75;;;;;;;;;;4998000;28;20231;-80
2023/09/10 10:19:04;;;;;;;18.80;17.00;;;;;;;;;;5017109;28;20239;-80
2023/09/10 10:21:31;;;;;;;18.52;16.73;;;;;;;;;;4999412;28;20220;-80
2023/09/10 10:23:58;;;;;;;16.92;12.15;;;;;;;;;;5056433;28;20230;-80
2023/09/10 10:26:24;;;;;;;14.95;13.45;;;;;;;;;;5057304;28;20246;-80
2023/09/10 10:28:50;;;;;;;18.17;12.73;;;;;;;;;;5057376;28;20171;-85
2023/09/10 10:31:17;;;;;;;17.08;12.57;;;;;;;;;;5056057;28;20179;-84
2023/09/10 10:33:51;;;;;;;17.38;14.02;;;;;;;;;;5057144;28;20185;-84
2023/09/10 10:36:31;;;;;;;17.73;14.30;;;;;;;;;;5066609;22;20195;-81
2023/09/10 10:38:57;;;;;;;18.17;11.77;;;;;;;;;;5033372;28;20184;-80
2023/09/10 10:41:27;;;;;;;14.90;12.20;;;;;;;;;;5036385;28;20184;-81
2023/09/10 10:44:06;;;;;;;21.20;11.85;;;;;;;;;;5036828;28;20203;-81
2023/09/10 10:46:33;;;;;;;17.55;12.63;;;;;;;;;;5054591;28;20164;-79
2023/09/10 10:49:00;;;;;;;14.50;12.35;;;;;;;;;;5036785;28;20175;-79
2023/09/10 10:51:27;;;;;;;15.85;10.98;;;;;;;;;;5036994;28;20176;-79
2023/09/10 10:53:53;;;;;;;17.52;12.32;;;;;;;;;;5037342;28;20271;-78
2023/09/10 10:56:19;;;;;;;19.75;13.07;;;;;;;;;;5036601;28;20298;-78
2023/09/10 10:58:45;;;;;;;18.05;11.15;;;;;;;;;;5036741;28;20179;-81
2023/09/10 11:01:12;;;;;;;16.92;12.77;;;;;;;;;;5020621;28;20188;-78
2023/09/10 11:03:38;;;;;;;18.85;13.38;;;;;;;;;;5017710;28;20223;-79
2023/09/10 11:06:05;;;;;;;19.85;13.32;;;;;;;;;;5036174;28;20202;-77
2023/09/10 11:08:31;;;;;;;19.77;13.57;;;;;;;;;;5054426;28;20203;-78
2023/09/10 11:10:58;;;;;;;21.27;14.05;;;;;;;;;;5036945;28;20180;-78
2023/09/10 11:13:24;;;;;;;17.27;13.85;;;;;;;;;;5020719;28;20176;-78
2023/09/10 11:16:05;;;;;;;17.05;13.07;;;;;;;;;;5036069;28;20196;-79
2023/09/10 11:18:37;;;;;;;20.85;12.40;;;;;;;;;;5037007;28;20218;-80
2023/09/10 11:21:06;;;;;;;18.45;12.38;;;;;;;;;;5054836;28;20245;-80
2023/09/10 11:23:33;;;;;;;21.73;13.73;;;;;;;;;;5036106;28;20172;-81
2023/09/10 11:26:14;;;;;;;18.75;12.65;;;;;;;;;;5036353;28;20191;-80
2023/09/10 11:28:44;;;;;;;19.20;12.45;;;;;;;;;;5035544;28;20180;-80
2023/09/10 11:31:29;;;;;;;17.50;13.52;;;;;;;;;;5016854;28;20280;-80
2023/09/10 11:33:57;;;;;;;18.52;13.32;;;;;;;;;;5034356;28;20173;-80
2023/09/10 11:36:26;;;;;;;21.23;13.50;;;;;;;;;;5016889;28;20200;-80
2023/09/10 11:38:55;;;;;;;22.42;12.05;;;;;;;;;;5030875;28;20216;-81
2023/09/10 11:41:21;;;;;;;21.40;12.10;;;;;;;;;;5026094;28;20179;-81
2023/09/10 11:43:49;;;;;;;21.80;13.93;;;;;;;;;;5020197;28;20176;-81
2023/09/10 11:46:15;;;;;;;20.50;15.50;;;;;;;;;;5054458;28;20175;-81
2023/09/10 11:48:43;;;;;;;18.90;14.40;;;;;;;;;;5020313;28;20275;-81
2023/09/10 11:51:09;;;;;;;18.23;14.25;;;;;;;;;;5036337;28;20175;-81
2023/09/10 11:53:36;;;;;;;18.20;13.18;;;;;;;;;;5006921;28;20192;-81
2023/09/10 11:56:02;;;;;;;16.77;12.93;;;;;;;;;;5016434;28;20216;-81
2023/09/10 11:58:28;;;;;;;15.30;12.13;;;;;;;;;;5016689;28;20181;-81
2023/09/10 12:00:54;;;;;;;16.33;12.70;;;;;;;;;;5017130;28;20176;-81
2023/09/10 12:03:21;;;;;;;16.75;13.80;;;;;;;;;;5033271;28;20173;-82
2023/09/10 12:05:47;;;;;;;16.63;11.65;;;;;;;;;;5017236;28;20176;-82
2023/09/10 12:08:13;;;;;;;15.30;12.80;;;;;;;;;;5016401;28;20184;-82
2023/09/10 12:10:39;;;;;;;11.88;10.25;;;;;;;;;;5016480;28;20188;-82
2023/09/10 12:13:06;;;;;;;17.77;11.43;;;;;;;;;;5016542;28;20207;-82
2023/09/10 12:15:33;;;;;;;16.63;11.52;;;;;;;;;;5044941;28;20207;-82
2023/09/10 12:18:03;;;;;;;20.02;12.70;;;;;;;;;;5068594;28;20258;-82
2023/09/10 12:20:30;;;;;;;16.73;11.90;;;;;;;;;;5052864;28;20168;-83
2023/09/10 12:22:56;;;;;;;15.82;11.50;;;;;;;;;;5035998;28;20187;-83
2023/09/10 12:25:22;;;;;;;13.48;11.30;;;;;;;;;;5036574;28;20188;-82
2023/09/10 12:27:48;;;;;;;16.80;10.85;;;;;;;;;;5036050;28;20266;-82
2023/09/10 12:30:14;;;;;;;12.77;10.07;;;;;;;;;;5053689;28;20191;-82
2023/09/10 12:32:40;;;;;;;15.60;10.05;;;;;;;;;;5035929;28;20270;-82
2023/09/10 12:35:07;;;;;;;19.33;10.35;;;;;;;;;;5019461;28;20208;-82
2023/09/10 12:37:33;;;;;;;11.65;9.05;;;;;;;;;;5019993;28;20291;-82
2023/09/10 12:40:00;;;;;;;12.73;9.13;;;;;;;;;;5019320;28;20322;-83
2023/09/10 12:42:28;;;;;;;12.10;8.82;;;;;;;;;;5023280;28;20184;-82
2023/09/10 12:44:54;;;;;;;14.48;9.32;;;;;;;;;;5053435;28;20232;-82
2023/09/10 12:47:20;;;;;;;14.18;9.80;;;;;;;;;;5051410;28;20181;-82
2023/09/10 12:49:46;;;;;;;14.77;8.90;;;;;;;;;;5032665;28;20184;-82
2023/09/10 12:52:12;;;;;;;14.45;8.30;;;;;;;;;;5036453;28;20176;-82
2023/09/10 12:54:38;;;;;;;11.35;9.05;;;;;;;;;;5035902;28;20203;-82
2023/09/10 12:57:05;;;;;;;12.02;9.13;;;;;;;;;;5019371;28;20187;-82
2023/09/10 12:59:31;;;;;;;15.35;8.93;;;;;;;;;;5053419;28;20175;-82
2023/09/10 13:01:57;;;;;;;13.75;8.85;;;;;;;;;;5036363;28;20172;-82
2023/09/10 13:04:23;;;;;;;14.05;8.25;;;;;;;;;;5019734;28;20180;-82
2023/09/10 13:06:49;;;;;;;14.65;8.50;;;;;;;;;;5022992;28;20214;-82
2023/09/10 13:09:15;;;;;;;14.27;7.70;;;;;;;;;;5022965;28;20176;-82
2023/09/10 13:11:41;;;;;;;12.07;8.20;;;;;;;;;;5022605;28;20241;-82
2023/09/10 13:14:07;;;;;;;13.30;7.68;;;;;;;;;;5021046;28;20193;-82
2023/09/10 13:16:33;;;;;;;11.13;8.15;;;;;;;;;;5055334;28;20211;-80
2023/09/10 13:18:59;;;;;;;13.10;7.72;;;;;;;;;;5036346;28;20187;-80
2023/09/10 13:21:25;;;;;;;13.48;7.80;;;;;;;;;;5022946;28;20183;-80
2023/09/10 13:23:51;;;;;;;14.60;7.63;;;;;;;;;;5022562;28;20191;-80
2023/09/10 13:26:17;;;;;;;11.45;7.45;;;;;;;;;;5038900;28;20192;-80
2023/09/10 13:28:43;;;;;;;14.75;7.60;;;;;;;;;;5037964;28;20207;-80
2023/09/10 13:31:09;;;;;;;15.63;7.90;;;;;;;;;;5037261;28;20262;-81
2023/09/10 13:33:35;;;;;;;11.23;7.43;;;;;;;;;;5038981;28;20214;-80
2023/09/10 13:36:01;;;;;;;13.50;8.02;;;;;;;;;;5038884;28;20234;-81
2023/09/10 13:38:27;;;;;;;11.63;8.02;;;;;;;;;;5037599;28;20232;-80
2023/09/10 13:40:56;;;;;;;15.35;7.88;;;;;;;;;;5038390;28;20233;-80
2023/09/10 13:43:23;;;;;;;11.98;8.25;;;;;;;;;;5022605;28;20168;-80
2023/09/10 13:45:49;;;;;;;10.57;7.53;;;;;;;;;;5038294;28;20194;-80
2023/09/10 13:48:15;;;;;;;13.02;7.60;;;;;;;;;;5037571;28;20184;-87
2023/09/10 13:50:41;;;;;;;16.67;7.45;;;;;;;;;;5022331;28;20200;-88
2023/09/10 13:53:07;;;;;;;16.25;7.80;;;;;;;;;;5022271;28;20184;-87
2023/09/10 13:55:33;;;;;;;14.23;7.80;;;;;;;;;;5056079;28;20218;-88
2023/09/10 13:57:59;;;;;;;11.75;7.50;;;;;;;;;;5040073;28;20183;-87
2023/09/10 14:00:25;;;;;;;15.43;7.55;;;;;;;;;;5038882;28;20176;-87
2023/09/10 14:02:51;;;;;;;14.63;6.95;;;;;;;;;;5038907;28;20180;-87
2023/09/10 14:05:17;;;;;;;13.63;6.78;;;;;;;;;;5038742;28;20184;-83
2023/09/10 14:07:43;;;;;;;11.85;7.30;;;;;;;;;;5055019;28;20230;-83
2023/09/10 14:10:09;;;;;;;13.75;7.43;;;;;;;;;;5055724;28;20191;-83
2023/09/10 14:12:35;;;;;;;9.75;7.47;;;;;;;;;;5055891;28;20207;-83
2023/09/10 14:15:01;;;;;;;13.98;7.20;;;;;;;;;;5038285;28;20195;-83
2023/09/10 14:17:27;;;;;;;11.18;8.00;;;;;;;;;;5053505;28;20194;-83